Petropavlovsk-Kamchatskiy, Russia
Current Conditions -  °F | °C
As of 2:00 AM on Saturday 29 Nov 2014 (Local Time) from UHPP Reporting Station
Broken Clouds Broken Clouds  
Wind Chill: 11°   Ceiling: 3000
Heat Index: 19°   Visibility: 6mi
Dew Point: 16°   Wind: 7mph
Humidity: 86%   Direction: 360°N
Pressure: 29.83"   Gusts: NA
Location:  53.02°N, 158.65°E
Report Text: UHPP 281400Z 36003MPS 9999 SCT010 BKN030CB M07/M09 Q1010 NOSIGRMK QBB300 QFE754/1005 SC070
Loading
Personal Weather Stations






























Interactive Weather Map New forecast layout! Learn more

10-Day Weather Forecast

Advertisements
Track Severe Weather on mobile